Main page
METAR-TAF:

METAR-TAF

Airports :

Ouagadougou Airport

Ouagadougou, Burkina Faso

latitude: 12-21N, longitude: 001-31W, elevation: 316 m

Current weather observation

The report was made 2 hours and 46 minutes ago, at 13:00 UTC
Wind 6 kt from the North/Northwest, varying between Southwest and Northeast
Temperature 39°C
Humidity 14%
Pressure 1010 hPa
Visibility 10 km or more
no clouds below 1500 m and no cumulonimbus

METAR: DFFD 281300Z 34006KT 230V040 CAVOK 39/07 Q1010 NOSIG

Time: 15:46 (15:46 UTC)

Forecast

The report was made 4 hours and 46 minutes ago, at 11:00 UTC
Forecast valid from 28 at 12 UTC to 29 at 18 UTC
Wind 6 kt from variable directions
Visibility 10 km or more
no clouds below 1500 m and no cumulonimbus

TAF: DFFD 281100Z 2812/2918 VRB06KT CAVOK

Weather observations and forecasts of more than 4000 airports (METAR and TAF reports).

The available stations are represented by yellow and red dots on the map.

Hover mouse over dot to see the name of the station.

Then click to see weather observations and forecasts.

To change the map : click on the green buttons with a black cross to zoom in, on the green button with a dash to zoom out, or on the green arrows for adjacent maps.


METAR-TAF: